Terminal Aerodrome Forecast
Issued by NWS Wilmington, NC

Home | Current Version | Previous Version | Text Only | Print | Product List | Glossary On
Versions: 1 2 3 4 5 6 7 8 9 10 11 12
000
FTUS42 KILM 200500
TAFFLO
TAF
KFLO 200530Z 2006/2106 06006KT P6SM BKN100
     FM201100 05005KT 6SM -RA BR BKN040 OVC100
     FM201500 04007KT 6SM -RA BKN020 OVC040
     FM202100 03005KT P6SM SCT020 BKN035=

USA.gov is the U.S. government's official web portal to all federal, state and local government web resources and services.